createdAt,value
2019-04-30T00:01:38.405Z,12.95
2019-04-30T00:04:34.580Z,13.62
2019-04-30T00:07:01.729Z,12.77
2019-04-30T00:09:35.058Z,12.80
2019-04-30T00:12:05.630Z,14.13
2019-04-30T00:14:38.583Z,13.73
2019-04-30T00:17:10.796Z,14.90
2019-04-30T00:19:39.395Z,14.10
2019-04-30T00:22:09.476Z,16.40
2019-04-30T00:24:39.864Z,14.10
2019-04-30T00:27:11.438Z,15.97
2019-04-30T00:29:41.587Z,14.23
2019-04-30T00:32:11.837Z,14.30
2019-04-30T00:34:41.987Z,16.27
2019-04-30T00:37:13.882Z,16.20
2019-04-30T00:39:50.707Z,15.83
2019-04-30T00:42:17.251Z,15.37
2019-04-30T00:44:47.647Z,18.35
2019-04-30T00:47:17.742Z,16.53
2019-04-30T00:49:52.227Z,18.40
2019-04-30T00:52:19.508Z,15.60
2019-04-30T00:54:49.534Z,17.00
2019-04-30T00:57:19.653Z,15.90
2019-04-30T00:59:49.716Z,15.83
2019-04-30T01:02:31.763Z,14.73
2019-04-30T01:05:06.161Z,17.47
2019-04-30T01:07:31.309Z,18.07
2019-04-30T01:10:01.550Z,19.10
2019-04-30T01:12:36.396Z,19.23
2019-04-30T01:15:06.509Z,19.27
2019-04-30T01:17:35.597Z,22.43
2019-04-30T01:20:06.703Z,18.30
2019-04-30T01:22:38.879Z,18.67
2019-04-30T01:25:13.378Z,19.50
2019-04-30T01:27:45.762Z,19.53
2019-04-30T01:30:21.104Z,17.40
2019-04-30T01:32:51.931Z,19.83
2019-04-30T01:35:19.149Z,19.40
2019-04-30T01:37:49.303Z,19.00
2019-04-30T01:40:19.700Z,17.35
2019-04-30T01:42:51.638Z,18.00
2019-04-30T01:45:23.244Z,16.80
2019-04-30T01:47:53.631Z,16.00
2019-04-30T01:50:23.786Z,16.77
2019-04-30T01:52:53.950Z,18.43
2019-04-30T01:55:43.351Z,19.30
2019-04-30T01:58:22.380Z,18.33
2019-04-30T02:00:55.721Z,16.93
2019-04-30T02:03:25.887Z,20.43
2019-04-30T02:05:56.099Z,19.73
2019-04-30T02:08:26.270Z,20.47
2019-04-30T02:10:56.373Z,18.80
2019-04-30T02:13:26.555Z,19.67
2019-04-30T02:15:56.574Z,18.57
2019-04-30T02:18:26.691Z,19.60
2019-04-30T02:20:56.795Z,18.80
2019-04-30T02:23:26.832Z,18.87
2019-04-30T02:25:58.836Z,19.12
2019-04-30T02:28:29.164Z,19.10
2019-04-30T02:31:00.371Z,20.87
2019-04-30T02:33:32.454Z,22.80
2019-04-30T02:36:24.325Z,18.63
2019-04-30T02:38:55.403Z,20.80
2019-04-30T02:41:29.271Z,20.93
2019-04-30T02:44:02.991Z,22.77
2019-04-30T02:46:33.988Z,23.07
2019-04-30T02:49:05.553Z,26.70
2019-04-30T02:51:40.071Z,24.50
2019-04-30T02:54:25.218Z,22.50
2019-04-30T02:57:23.718Z,23.32
2019-04-30T03:00:24.807Z,21.70
2019-04-30T03:02:54.935Z,19.40
2019-04-30T03:05:25.000Z,21.33
2019-04-30T03:07:55.212Z,20.50
2019-04-30T03:10:25.395Z,20.57
2019-04-30T03:12:55.653Z,21.90
2019-04-30T03:15:25.787Z,22.50
2019-04-30T03:18:11.499Z,22.47
2019-04-30T03:20:52.172Z,25.20
2019-04-30T03:23:22.319Z,25.87
2019-04-30T03:25:52.439Z,24.30
2019-04-30T03:28:22.593Z,26.70
2019-04-30T03:30:57.972Z,27.33
2019-04-30T03:33:24.458Z,25.80
2019-04-30T03:35:55.310Z,22.43
2019-04-30T03:38:25.551Z,20.60
2019-04-30T03:40:55.632Z,22.50
2019-04-30T03:43:25.861Z,24.53
2019-04-30T03:45:55.802Z,22.07
2019-04-30T03:48:25.908Z,23.62
2019-04-30T03:50:57.243Z,24.52
2019-04-30T03:53:29.764Z,24.90
2019-04-30T03:56:01.482Z,25.37
2019-04-30T03:58:31.217Z,23.30
2019-04-30T04:01:14.064Z,23.00
2019-04-30T04:04:01.484Z,23.60
2019-04-30T04:06:39.411Z,23.33
2019-04-30T04:09:21.972Z,24.00
2019-04-30T04:11:51.004Z,24.27
2019-04-30T04:14:21.154Z,22.13
2019-04-30T04:16:51.233Z,24.27
2019-04-30T04:19:21.384Z,22.65
2019-04-30T04:21:51.362Z,23.87
2019-04-30T04:24:21.595Z,22.90
2019-04-30T04:26:51.662Z,24.60
2019-04-30T04:29:21.618Z,27.47
2019-04-30T04:31:51.673Z,23.80
2019-04-30T04:34:21.710Z,21.67
2019-04-30T04:36:51.768Z,24.13
2019-04-30T04:39:21.703Z,22.90
2019-04-30T04:41:51.837Z,22.00
2019-04-30T04:44:21.971Z,23.90
2019-04-30T04:46:52.073Z,24.83
2019-04-30T04:49:22.541Z,20.60
2019-04-30T04:51:52.654Z,22.33
2019-04-30T04:54:22.841Z,20.57
2019-04-30T04:56:54.762Z,21.00
2019-04-30T04:59:24.654Z,21.63
2019-04-30T05:01:54.743Z,23.20
2019-04-30T05:04:24.898Z,21.83
2019-04-30T05:06:54.983Z,22.40
2019-04-30T05:09:25.091Z,25.03
2019-04-30T05:11:55.185Z,23.63
2019-04-30T05:14:25.207Z,20.67
2019-04-30T05:16:55.165Z,21.70
2019-04-30T05:19:25.314Z,20.77
2019-04-30T05:21:55.325Z,22.87
2019-04-30T05:24:25.382Z,22.47
2019-04-30T05:26:55.466Z,21.68
2019-04-30T05:29:25.410Z,21.63
2019-04-30T05:31:55.439Z,21.53
2019-04-30T05:34:25.574Z,21.47
2019-04-30T05:36:55.575Z,21.10
2019-04-30T05:39:25.714Z,19.93
2019-04-30T05:41:55.751Z,19.47
2019-04-30T05:44:25.768Z,24.30
2019-04-30T05:46:55.789Z,21.53
2019-04-30T05:49:25.731Z,20.70
2019-04-30T05:51:56.027Z,21.83
2019-04-30T05:54:26.296Z,20.67
2019-04-30T05:56:56.427Z,21.40
2019-04-30T05:59:28.798Z,22.10
2019-04-30T06:01:59.195Z,22.35
2019-04-30T06:04:29.510Z,26.00
2019-04-30T06:06:59.679Z,24.77
2019-04-30T06:09:39.727Z,21.93
2019-04-30T06:12:28.420Z,23.87
2019-04-30T06:15:23.552Z,27.13
2019-04-30T06:18:00.766Z,23.00
2019-04-30T06:20:25.655Z,21.47
2019-04-30T06:22:57.106Z,22.57
2019-04-30T06:25:37.180Z,19.60
2019-04-30T06:28:00.877Z,21.60
2019-04-30T06:30:32.019Z,22.33
2019-04-30T06:33:02.775Z,18.50
2019-04-30T06:35:33.052Z,19.37
2019-04-30T06:38:03.218Z,19.97
2019-04-30T06:40:33.416Z,21.07
2019-04-30T06:43:03.703Z,19.67
2019-04-30T06:45:36.408Z,19.83
2019-04-30T06:48:09.014Z,19.90
2019-04-30T06:50:39.464Z,20.43
2019-04-30T06:53:09.594Z,22.00
2019-04-30T06:55:39.683Z,19.90
2019-04-30T06:58:15.054Z,17.87
2019-04-30T07:00:41.643Z,19.07
2019-04-30T07:03:11.715Z,20.97
2019-04-30T07:05:41.937Z,20.70
2019-04-30T07:08:38.911Z,21.10
2019-04-30T07:11:19.493Z,18.50
2019-04-30T07:13:52.309Z,19.17
2019-04-30T07:16:22.194Z,18.17
2019-04-30T07:18:52.214Z,18.37
2019-04-30T07:21:22.433Z,19.03
2019-04-30T07:23:52.583Z,18.65
2019-04-30T07:26:24.390Z,18.80
2019-04-30T07:28:55.459Z,17.60
2019-04-30T07:31:25.811Z,16.80
2019-04-30T07:33:55.775Z,16.77
2019-04-30T07:36:43.319Z,17.00
2019-04-30T07:38:59.903Z,16.70
2019-04-30T07:41:31.291Z,18.97
2019-04-30T07:44:01.433Z,17.97
2019-04-30T07:46:35.178Z,17.97
2019-04-30T07:49:03.535Z,15.23
2019-04-30T07:51:37.944Z,17.07
2019-04-30T07:54:05.563Z,17.00
2019-04-30T07:56:38.750Z,18.20
2019-04-30T07:59:10.833Z,15.87
2019-04-30T08:04:29.423Z,17.37
2019-04-30T08:07:01.430Z,16.70
2019-04-30T08:09:35.580Z,15.25
2019-04-30T08:09:39.231Z,14.33
2019-04-30T08:12:03.632Z,17.03
2019-04-30T08:14:33.744Z,17.20
2019-04-30T08:17:03.851Z,15.90
2019-04-30T08:19:34.049Z,16.00
2019-04-30T08:22:04.203Z,16.50
2019-04-30T08:24:34.205Z,15.33
2019-04-30T08:27:04.410Z,13.97
2019-04-30T08:29:34.343Z,15.13
2019-04-30T08:32:04.440Z,15.87
2019-04-30T08:34:34.375Z,15.07
2019-04-30T08:37:15.261Z,13.27
2019-04-30T08:39:36.452Z,13.63
2019-04-30T08:42:06.616Z,12.40
2019-04-30T08:44:36.793Z,12.83
2019-04-30T08:47:08.629Z,11.67
2019-04-30T08:49:40.448Z,13.33
2019-04-30T08:52:11.384Z,12.67
2019-04-30T08:54:41.865Z,11.70
2019-04-30T08:57:11.897Z,13.17
2019-04-30T08:59:42.059Z,12.00
2019-04-30T09:02:16.237Z,12.63
2019-04-30T09:04:44.187Z,12.70
2019-04-30T09:07:14.376Z,11.30
2019-04-30T09:09:44.741Z,11.45
2019-04-30T09:12:14.983Z,11.78
2019-04-30T09:14:45.157Z,11.12
2019-04-30T09:17:15.168Z,11.90
2019-04-30T09:19:45.189Z,11.22
2019-04-30T09:22:15.391Z,10.85
2019-04-30T09:24:45.332Z,12.45
2019-04-30T09:27:15.514Z,11.53
2019-04-30T09:29:45.606Z,11.13
2019-04-30T09:32:15.764Z,13.30
2019-04-30T09:34:45.860Z,13.27
2019-04-30T09:37:15.977Z,12.80
2019-04-30T09:39:46.064Z,11.57
2019-04-30T09:42:16.118Z,12.10
2019-04-30T09:44:46.161Z,13.17
2019-04-30T09:47:16.256Z,13.47
2019-04-30T09:49:46.388Z,12.33
2019-04-30T09:52:18.840Z,14.20
2019-04-30T09:54:49.849Z,14.07
2019-04-30T09:57:20.447Z,16.83
2019-04-30T09:59:50.412Z,14.40
2019-04-30T10:02:20.575Z,14.47
2019-04-30T10:04:51.008Z,14.30
2019-04-30T10:07:21.478Z,13.70
2019-04-30T10:09:51.573Z,14.50
2019-04-30T10:12:21.767Z,13.77
2019-04-30T10:14:51.970Z,15.65
2019-04-30T10:17:34.156Z,17.00
2019-04-30T10:20:05.402Z,16.87
2019-04-30T10:22:35.527Z,15.37
2019-04-30T10:25:07.028Z,14.70
2019-04-30T10:27:38.762Z,17.97
2019-04-30T10:30:11.410Z,16.83
2019-04-30T10:32:41.649Z,16.00
2019-04-30T10:35:12.061Z,18.70
2019-04-30T10:37:42.380Z,16.00
2019-04-30T10:40:12.786Z,18.97
2019-04-30T10:42:42.921Z,16.85
2019-04-30T10:45:13.472Z,20.27
2019-04-30T10:47:43.695Z,18.23
2019-04-30T10:50:14.411Z,17.80
2019-04-30T10:52:44.622Z,17.73
2019-04-30T10:55:15.004Z,15.67
2019-04-30T10:57:45.138Z,17.60
2019-04-30T11:00:18.618Z,18.47
2019-04-30T11:02:49.664Z,17.07
2019-04-30T11:05:21.118Z,19.05
2019-04-30T11:07:51.310Z,17.00
2019-04-30T11:10:21.565Z,14.90
2019-04-30T11:12:51.515Z,17.83
2019-04-30T11:15:21.802Z,17.40
2019-04-30T11:17:52.085Z,16.03
2019-04-30T11:20:22.711Z,15.40
2019-04-30T11:22:54.748Z,14.83
2019-04-30T11:25:25.348Z,15.80
2019-04-30T11:27:56.397Z,13.63
2019-04-30T11:30:29.185Z,16.17
2019-04-30T11:32:59.042Z,15.50
2019-04-30T11:35:29.805Z,16.32
2019-04-30T11:38:00.011Z,16.60
2019-04-30T11:40:37.057Z,17.10
2019-04-30T11:43:03.942Z,17.20
2019-04-30T11:46:41.175Z,16.63
2019-04-30T11:49:12.323Z,17.33
2019-04-30T11:51:42.407Z,16.32
2019-04-30T11:54:12.576Z,16.10
2019-04-30T11:56:42.594Z,16.43
2019-04-30T11:59:12.729Z,14.70
2019-04-30T12:01:42.773Z,15.87
2019-04-30T12:04:12.958Z,15.00
2019-04-30T12:06:43.115Z,15.80
2019-04-30T12:09:38.699Z,17.37
2019-04-30T12:12:09.214Z,17.20
2019-04-30T12:14:39.617Z,14.10
2019-04-30T12:17:09.971Z,15.03
2019-04-30T12:19:40.100Z,15.20
2019-04-30T12:22:10.217Z,16.60
2019-04-30T12:24:40.665Z,16.33
2019-04-30T12:27:10.783Z,15.70
2019-04-30T12:29:40.834Z,14.57
2019-04-30T12:32:10.855Z,14.23
2019-04-30T12:34:40.915Z,15.03
2019-04-30T12:37:10.999Z,15.10
2019-04-30T12:39:41.167Z,15.90
2019-04-30T12:42:11.274Z,15.50
2019-04-30T12:44:41.337Z,15.10
2019-04-30T12:47:11.529Z,14.80
2019-04-30T12:50:16.671Z,16.03
2019-04-30T12:52:53.587Z,16.20
2019-04-30T12:55:41.727Z,16.00
2019-04-30T12:58:12.966Z,15.27
2019-04-30T13:00:43.155Z,15.08
2019-04-30T13:03:13.261Z,15.33
2019-04-30T13:05:43.788Z,16.67
2019-04-30T13:08:14.655Z,16.27
2019-04-30T13:10:45.808Z,14.78
2019-04-30T13:13:16.977Z,14.90
2019-04-30T13:15:47.492Z,13.80
2019-04-30T13:18:19.386Z,15.78
2019-04-30T13:20:49.444Z,14.00
2019-04-30T13:23:19.604Z,15.15
2019-04-30T13:25:51.632Z,13.50
2019-04-30T13:28:23.254Z,13.33
2019-04-30T13:30:53.362Z,13.47
2019-04-30T13:33:29.545Z,14.80
2019-04-30T13:35:59.691Z,14.00
2019-04-30T13:38:47.186Z,14.63
2019-04-30T13:41:26.940Z,17.70
2019-04-30T13:43:58.862Z,15.57
2019-04-30T13:46:29.096Z,16.80
2019-04-30T13:48:59.264Z,14.30
2019-04-30T13:51:29.376Z,15.13
2019-04-30T13:53:59.585Z,13.73
2019-04-30T13:56:29.719Z,14.13
2019-04-30T13:58:59.891Z,14.23
2019-04-30T14:01:30.963Z,14.10
2019-04-30T14:04:13.388Z,16.50
2019-04-30T14:07:08.188Z,14.65
2019-04-30T14:09:38.362Z,15.17
2019-04-30T14:12:08.540Z,14.60
2019-04-30T14:14:39.535Z,15.27
2019-04-30T14:17:09.712Z,13.30
2019-04-30T14:19:39.824Z,15.37
2019-04-30T14:22:10.284Z,13.90
2019-04-30T14:24:40.368Z,14.23
2019-04-30T14:27:10.555Z,15.43
2019-04-30T14:29:40.576Z,15.03
2019-04-30T14:32:10.831Z,14.80
2019-04-30T14:34:40.954Z,15.43
2019-04-30T14:37:10.997Z,15.13
2019-04-30T14:39:41.483Z,14.77
2019-04-30T14:42:12.796Z,15.30
2019-04-30T14:44:44.487Z,14.95
2019-04-30T14:47:29.798Z,14.93
2019-04-30T14:50:15.285Z,16.43
2019-04-30T14:53:03.157Z,15.60
2019-04-30T14:55:55.348Z,16.30
2019-04-30T14:58:41.560Z,15.37
2019-04-30T15:01:26.177Z,16.57
2019-04-30T15:03:56.391Z,16.40
2019-04-30T15:06:26.631Z,16.00
2019-04-30T15:08:56.755Z,16.50
2019-04-30T15:11:28.743Z,14.50
2019-04-30T15:13:59.207Z,16.00
2019-04-30T15:16:29.468Z,14.33
2019-04-30T15:18:59.644Z,13.70
2019-04-30T15:21:29.825Z,13.20
2019-04-30T15:24:13.059Z,14.17
2019-04-30T15:26:44.910Z,14.10
2019-04-30T15:29:16.241Z,14.67
2019-04-30T15:31:46.593Z,12.10
2019-04-30T15:34:16.678Z,14.50
2019-04-30T15:36:46.990Z,14.70
2019-04-30T15:39:35.004Z,11.83
2019-04-30T15:42:05.437Z,13.50
2019-04-30T15:44:40.036Z,13.10
2019-04-30T15:47:09.106Z,12.40
2019-04-30T15:49:39.406Z,13.45
2019-04-30T15:52:10.991Z,14.10
2019-04-30T15:54:41.091Z,14.50
2019-04-30T15:57:11.152Z,14.40
2019-04-30T15:59:44.968Z,12.50
2019-04-30T16:02:33.021Z,12.80
2019-04-30T16:05:34.396Z,14.63
2019-04-30T16:08:39.076Z,13.13
2019-04-30T16:11:40.218Z,12.77
2019-04-30T16:14:26.389Z,13.50
2019-04-30T16:17:04.702Z,13.67
2019-04-30T16:19:34.907Z,12.77
2019-04-30T16:22:05.840Z,13.13
2019-04-30T16:24:36.109Z,12.80
2019-04-30T16:27:06.591Z,13.63
2019-04-30T16:29:49.810Z,12.23
2019-04-30T16:32:21.317Z,11.10
2019-04-30T16:34:51.433Z,13.30
2019-04-30T16:37:21.385Z,12.47
2019-04-30T16:39:51.550Z,12.77
2019-04-30T16:42:21.634Z,12.57
2019-04-30T16:44:51.735Z,12.43
2019-04-30T16:47:21.867Z,13.63
2019-04-30T16:49:52.084Z,13.47
2019-04-30T16:52:22.160Z,14.30
2019-04-30T16:54:52.168Z,13.70
2019-04-30T16:57:22.375Z,12.47
2019-04-30T16:59:53.499Z,15.53
2019-04-30T17:02:25.421Z,12.87
2019-04-30T17:05:02.943Z,11.83
2019-04-30T17:07:50.703Z,14.73
2019-04-30T17:10:31.283Z,13.73
2019-04-30T17:13:20.276Z,13.57
2019-04-30T17:15:51.953Z,13.77
2019-04-30T17:18:22.099Z,11.22
2019-04-30T17:20:52.153Z,13.70
2019-04-30T17:23:22.343Z,12.77
2019-04-30T17:25:52.337Z,13.13
2019-04-30T17:28:22.549Z,12.53
2019-04-30T17:30:52.611Z,14.60
2019-04-30T17:33:22.635Z,15.10
2019-04-30T17:35:52.701Z,12.67
2019-04-30T17:38:22.713Z,11.53
2019-04-30T17:40:52.770Z,14.00
2019-04-30T17:43:24.390Z,13.27
2019-04-30T17:45:54.699Z,15.32
2019-04-30T17:48:24.727Z,13.90
2019-04-30T17:50:54.859Z,13.00
2019-04-30T17:53:25.135Z,12.67
2019-04-30T17:55:55.104Z,14.60
2019-04-30T17:58:25.205Z,13.43
2019-04-30T18:00:57.082Z,11.90
2019-04-30T18:03:28.850Z,14.23
2019-04-30T18:05:59.265Z,13.17
2019-04-30T18:08:29.525Z,14.10
2019-04-30T18:10:59.637Z,13.43
2019-04-30T18:13:29.746Z,13.83
2019-04-30T18:16:00.450Z,13.27
2019-04-30T18:18:59.216Z,11.90
2019-04-30T18:21:40.154Z,13.97
2019-04-30T18:24:26.037Z,12.60
2019-04-30T18:27:00.683Z,13.67
2019-04-30T18:29:30.709Z,12.20
2019-04-30T18:32:00.894Z,13.27
2019-04-30T18:34:30.965Z,12.00
2019-04-30T18:37:01.010Z,12.03
2019-04-30T18:39:31.180Z,12.60
2019-04-30T18:42:01.389Z,11.00
2019-04-30T18:44:31.491Z,12.57
2019-04-30T18:47:01.726Z,13.07
2019-04-30T18:49:31.856Z,12.33
2019-04-30T18:52:02.056Z,12.53
2019-04-30T18:54:32.172Z,13.23
2019-04-30T18:57:02.405Z,12.47
2019-04-30T18:59:32.718Z,12.75
2019-04-30T19:02:04.628Z,12.83
2019-04-30T19:04:34.874Z,12.10
2019-04-30T19:07:18.140Z,14.80
2019-04-30T19:10:19.609Z,14.73
2019-04-30T19:13:02.630Z,15.30
2019-04-30T19:16:17.925Z,14.60
2019-04-30T19:18:32.237Z,15.67
2019-04-30T19:21:02.825Z,14.00
2019-04-30T19:23:32.877Z,17.07
2019-04-30T19:26:03.090Z,15.40
2019-04-30T19:28:33.251Z,15.87
2019-04-30T19:31:03.594Z,16.90
2019-04-30T19:33:33.624Z,16.40
2019-04-30T19:36:03.870Z,16.53
2019-04-30T19:38:34.355Z,16.57
2019-04-30T19:41:04.571Z,16.30
2019-04-30T19:43:34.649Z,15.67
2019-04-30T19:46:04.925Z,18.27
2019-04-30T19:48:35.038Z,14.70
2019-04-30T19:51:05.296Z,16.70
2019-04-30T19:53:35.450Z,16.40
2019-04-30T19:56:05.570Z,18.17
2019-04-30T19:58:50.112Z,18.57
2019-04-30T20:01:09.393Z,15.53
2019-04-30T20:03:40.725Z,16.67
2019-04-30T20:06:11.080Z,18.13
2019-04-30T20:08:41.033Z,14.60
2019-04-30T20:11:11.198Z,16.07
2019-04-30T20:13:41.300Z,15.83
2019-04-30T20:16:11.421Z,17.43
2019-04-30T20:18:41.663Z,16.40
2019-04-30T20:21:25.254Z,18.10
2019-04-30T20:23:48.182Z,16.73
2019-04-30T20:26:18.246Z,17.60
2019-04-30T20:28:48.795Z,16.90
2019-04-30T20:31:19.153Z,17.40
2019-04-30T20:33:49.246Z,16.50
2019-04-30T20:36:19.479Z,17.73
2019-04-30T20:39:17.437Z,15.00
2019-04-30T20:41:51.357Z,16.82
2019-04-30T20:44:21.618Z,17.70
2019-04-30T20:46:51.655Z,16.60
2019-04-30T20:49:21.800Z,17.15
2019-04-30T20:51:55.235Z,16.75
2019-04-30T20:54:23.827Z,18.03
2019-04-30T20:56:53.897Z,16.17
2019-04-30T20:59:23.974Z,16.80
2019-04-30T21:01:54.416Z,16.60
2019-04-30T21:04:24.470Z,18.17
2019-04-30T21:06:54.585Z,15.27
2019-04-30T21:09:24.603Z,18.17
2019-04-30T21:11:54.745Z,16.73
2019-04-30T21:14:24.848Z,17.27
2019-04-30T21:16:55.166Z,17.20
2019-04-30T21:19:25.284Z,16.63
2019-04-30T21:21:55.306Z,19.10
2019-04-30T21:24:25.248Z,17.87
2019-04-30T21:26:55.436Z,17.33
2019-04-30T21:29:25.578Z,16.17
2019-04-30T21:32:04.123Z,17.93
2019-04-30T21:34:44.377Z,16.10
2019-04-30T21:37:14.586Z,16.30
2019-04-30T21:39:44.686Z,17.53
2019-04-30T21:42:14.791Z,17.23
2019-04-30T21:44:44.823Z,18.47
2019-04-30T21:47:14.969Z,16.13
2019-04-30T21:49:45.059Z,16.45
2019-04-30T21:52:15.270Z,19.43
2019-04-30T21:54:45.420Z,18.57
2019-04-30T21:57:15.659Z,17.07
2019-04-30T21:59:45.743Z,18.50
2019-04-30T22:02:16.162Z,17.67
2019-04-30T22:04:46.257Z,18.73
2019-04-30T22:07:16.419Z,17.73
2019-04-30T22:09:46.617Z,16.97
2019-04-30T22:12:16.744Z,18.73
2019-04-30T22:14:46.903Z,17.30
2019-04-30T22:17:19.275Z,17.40
2019-04-30T22:19:51.592Z,16.10
2019-04-30T22:22:21.064Z,18.57
2019-04-30T22:24:51.248Z,19.70
2019-04-30T22:27:21.353Z,19.03
2019-04-30T22:29:51.523Z,17.85
2019-04-30T22:32:21.645Z,18.03
2019-04-30T22:34:51.830Z,20.40
2019-04-30T22:37:21.861Z,19.87
2019-04-30T22:39:59.385Z,18.10
2019-04-30T22:42:32.811Z,18.50
2019-04-30T22:45:06.318Z,19.95
2019-04-30T22:47:36.469Z,21.50
2019-04-30T22:50:08.707Z,18.30
2019-04-30T22:52:38.914Z,20.43
2019-04-30T22:55:09.521Z,19.90
2019-04-30T22:57:39.573Z,21.23
2019-04-30T23:00:14.635Z,20.57
2019-04-30T23:02:57.552Z,21.87
2019-04-30T23:05:27.734Z,19.03
2019-04-30T23:07:57.888Z,22.27
2019-04-30T23:10:28.148Z,20.77
2019-04-30T23:12:58.389Z,21.13
2019-04-30T23:15:28.622Z,20.93
2019-04-30T23:17:58.749Z,21.87
2019-04-30T23:20:28.957Z,21.15
2019-04-30T23:22:59.073Z,22.23
2019-04-30T23:25:29.426Z,20.70
2019-04-30T23:27:59.512Z,21.33
2019-04-30T23:30:29.647Z,20.97
2019-04-30T23:32:59.692Z,20.90
2019-04-30T23:35:29.866Z,20.90
2019-04-30T23:37:59.992Z,21.10
2019-04-30T23:40:46.150Z,21.47
2019-04-30T23:43:16.282Z,21.23
2019-04-30T23:45:46.323Z,20.73
2019-04-30T23:48:16.763Z,21.03
2019-04-30T23:50:46.876Z,21.90
2019-04-30T23:53:16.964Z,20.40
2019-04-30T23:55:47.092Z,21.55
2019-04-30T23:58:17.186Z,19.43
